Latest Weather Observations for Leigh Creek

IDS60801

Issued at 8:04 pm CDT Thursday 2 April 2015 (issued every 30 minutes, with the page automatically refreshed every 10 minutes)

About weather observations | Map of weather stations | Latest weather observations for SA | Other Formats
Station Details ID: 017110 Name: LEIGH CREEK AIRPORT Lat: -30.60 Lon: 138.42 Height: 258.8 m
Data from the previous 72 hours. | See also: Recent months at Leigh Creek
Date/Time
CDT
Temp
°C
App
Temp
°C
Dew
Point
Rel
Hum
%
Delta-T
°C
Wind Press
QNH
hPa
Press
MSL
hPa
Rain
since 9 am
mm
Dir
 
Spd
km/h
Gust
km/h
Spd
kts
Gust
kts
02/08:00pm 20.2 16.8 12.4 61 4.4 ESE 22 32 12 17 1018.1 1017.3 0.2
02/07:30pm 20.4 15.1 12.6 61 4.4 ESE 32 43 17 23 1017.5 1016.7 0.2
02/07:00pm 20.9 16.0 12.6 59 4.7 E 30 39 16 21 1017.4 1016.6 0.2
02/06:30pm 21.5 16.0 12.6 57 5.1 E 33 43 18 23 1017.2 1016.4 0.2
02/06:00pm 21.9 16.8 13.0 57 5.1 ESE 32 41 17 22 1017.1 1016.3 0.2
02/05:30pm 22.6 17.4 13.4 56 5.4 ESE 33 43 18 23 1016.9 1016.1 0.2
02/05:00pm 23.2 17.9 13.1 53 5.9 ESE 33 41 18 22 1016.9 1016.1 0.2
02/04:30pm 23.8 18.1 13.1 51 6.2 ESE 35 43 19 23 1016.7 1015.9 0.2
02/04:00pm 24.8 19.1 13.0 47 6.9 ESE 35 43 19 23 1016.9 1016.1 0.2
02/03:30pm 24.9 19.0 13.5 49 6.7 ESE 37 44 20 24 1017.3 1016.5 0.2
02/03:00pm 24.1 18.1 13.3 51 6.3 E 37 44 20 24 1017.7 1016.9 0.2
02/02:30pm 24.0 18.1 13.5 52 6.2 E 37 46 20 25 1018.5 1017.7 0.2
02/02:00pm 24.4 19.5 13.6 51 6.4 E 32 39 17 21 1018.8 1018.0 0.2
02/01:30pm 24.8 21.7 14.6 53 6.1 ESE 24 32 13 17 1019.2 1018.4 0.2
02/01:00pm 25.0 22.6 15.3 55 5.9 ESE 22 30 12 16 1019.6 1018.9 0.0
02/12:30pm 23.7 22.5 16.0 62 4.7 SE 17 24 9 13 1020.0 1019.3 0.0
02/12:00pm 23.9 22.6 14.9 57 5.4 SE 15 24 8 13 1020.1 1019.4 0.0
02/11:30am 24.5 23.4 14.3 53 6.1 SSE 13 24 7 13 1020.3 1019.6 0.0
02/11:00am 22.5 20.7 17.0 71 3.4 SSW 22 30 12 16 1020.4 1019.7 0.0
02/10:30am 21.8 19.6 17.0 74 3.0 SSW 24 28 13 15 1020.2 1019.5 0.0
02/10:00am 21.5 20.2 17.3 77 2.6 SSW 20 26 11 14 1020.0 1019.3 0.0
02/09:30am 20.8 19.7 17.2 80 2.2 SSW 19 22 10 12 1019.8 1019.1 0.0
02/09:00am 20.4 19.0 17.0 81 2.1 SSW 20 24 11 13 1019.5 1018.8 0.2
02/08:30am 20.6 20.9 16.0 75 2.8 S 9 15 5 8 1019.2 1018.4 0.2
02/08:00am 19.6 18.5 17.2 86 1.5 SSW 19 26 10 14 1019.1 1018.3 0.2
02/07:30am 19.7 18.8 16.9 84 1.7 SSW 17 20 9 11 1018.7 1017.9 0.2
02/07:00am 20.3 20.6 15.9 76 2.7 SE 9 13 5 7 1018.7 1017.9 0.2
02/06:30am 20.0 19.6 16.2 79 2.3 S 13 17 7 9 1018.2 1017.4 0.2
02/06:00am 19.7 18.1 16.5 82 1.9 SSW 20 28 11 15 1018.1 1017.3 0.2
02/05:30am 21.6 19.2 14.5 64 4.2 SSW 20 26 11 14 1017.6 1016.8 0.0
02/05:00am 21.7 19.6 14.8 65 4.1 SSW 19 24 10 13 1017.6 1016.8 0.0
02/04:30am 22.3 20.0 14.7 62 4.5 SSW 20 28 11 15 1017.3 1016.5 0.0
02/04:00am 23.0 20.8 13.2 54 5.7 SSW 17 20 9 11 1017.6 1016.8 0.0
02/03:30am 23.9 21.1 11.2 44 7.2 SSW 17 22 9 12 1017.5 1016.7 0.0
02/03:00am 25.0 21.3 8.1 34 9.1 SSW 17 22 9 12 1017.8 1017.0 0.0
02/02:30am 26.0 22.7 8.0 32 9.7 S 15 24 8 13 1017.6 1016.8 0.0
02/02:00am 25.8 23.5 4.9 26 10.7 S 6 9 3 5 1017.7 1016.9 0.0
02/01:30am 26.1 22.3 4.0 24 11.1 S 13 17 7 9 1017.6 1016.8 0.0
02/01:00am 26.6 22.2 2.5 21 11.9 S 15 22 8 12 1017.4 1016.6 0.0
02/12:30am 26.6 22.4 1.8 20 12.1 S 13 24 7 13 1017.5 1016.7 0.0
02/12:00am 26.3 23.3 0.9 19 12.1 SE 6 7 3 4 1017.6 1016.8 0.0
 
Date/Time
CDT
Temp
°C
App
Temp
°C
Dew
Point
Rel
Hum
%
Delta-T
°C
Wind Press
QNH
hPa
Press
MSL
hPa
Rain
since 9 am
mm
Dir
 
Spd
km/h
Gust
km/h
Spd
kts
Gust
kts
01/11:30pm 26.0 24.2 1.3 20 11.9 CALM 0 0 0 0 1017.7 1016.9 0.0
01/11:00pm 26.3 24.6 1.6 20 12.0 CALM 0 0 0 0 1017.5 1016.7 0.0
01/10:30pm 26.3 24.6 1.6 20 11.9 CALM 0 0 0 0 1017.6 1016.8 0.0
01/10:00pm 27.0 25.2 1.4 19 12.4 CALM 0 0 0 0 1017.4 1016.6 0.0
01/09:30pm 27.5 25.8 1.8 19 12.6 CALM 0 0 0 0 1017.2 1016.4 0.0
01/09:00pm 27.9 26.1 1.4 18 12.9 CALM 0 0 0 0 1017.0 1016.2 0.0
01/08:30pm 28.6 25.1 1.2 17 13.4 S 9 11 5 6 1016.7 1015.9 0.0
01/08:00pm 29.2 25.4 1.7 17 13.6 S 11 15 6 8 1016.2 1015.5 0.0
01/07:30pm 29.7 24.2 0.3 15 14.2 SSW 19 22 10 12 1016.0 1015.3 0.0
01/07:00pm 30.4 24.8 -0.1 14 14.8 SW 19 24 10 13 1015.8 1015.0 0.0
01/06:30pm 31.0 25.7 -0.6 13 15.2 SW 17 22 9 12 1015.6 1014.8 0.0
01/06:00pm 31.4 25.9 0.7 14 15.1 SW 19 24 10 13 1015.3 1014.5 0.0
01/05:30pm 32.5 27.8 0.6 13 15.8 SW 15 26 8 14 1015.1 1014.3 0.0
01/05:00pm 32.4 28.0 0.5 13 15.8 SW 13 17 7 9 1015.1 1014.3 0.0
01/04:30pm 32.6 28.6 0.6 13 15.9 W 11 26 6 14 1015.2 1014.4 0.0
01/04:00pm 32.9 28.6 0.9 13 16.0 NNW 13 24 7 13 1015.3 1014.5 0.0
01/03:30pm 33.1 27.7 1.0 13 16.1 W 19 28 10 15 1015.7 1014.9 0.0
01/03:00pm 33.7 28.3 1.5 13 16.3 W 19 28 10 15 1016.1 1015.4 0.0
01/02:30pm 33.2 27.2 1.1 13 16.1 W 22 33 12 18 1016.4 1015.7 0.0
01/02:00pm 32.6 27.8 2.6 15 15.4 NW 17 26 9 14 1016.9 1016.1 0.0
01/01:30pm 33.0 27.9 2.9 15 15.5 NNW 19 33 10 18 1017.3 1016.5 0.0
01/01:00pm 32.1 26.1 3.1 16 15.0 NNW 24 35 13 19 1017.6 1016.8 0.0
01/12:30pm 30.9 24.8 3.0 17 14.2 N 24 37 13 20 1018.1 1017.3 0.0
01/12:00pm 31.4 25.3 2.6 16 14.7 NNW 24 33 13 18 1018.4 1017.6 0.0
01/11:30am 31.4 25.3 2.6 16 14.7 N 24 32 13 17 1018.6 1017.8 0.0
01/11:00am 30.3 24.2 2.5 17 14.1 N 24 32 13 17 1018.9 1018.1 0.0
01/10:30am 28.8 23.8 1.3 17 13.5 N 17 26 9 14 1019.2 1018.4 0.0
01/10:00am 26.7 25.1 2.6 21 11.9 CALM 0 0 0 0 1019.4 1018.2 0.0
01/09:30am 24.3 22.2 4.1 27 10.1 S 4 6 2 3 1019.5 1018.3 0.0
01/09:00am 21.9 19.7 3.6 30 8.9 ESE 4 6 2 3 1019.4 1018.2 -
01/08:30am 18.3 15.0 2.2 34 7.4 SE 9 11 5 6 1019.2 1018.0 -
01/08:00am 14.8 11.9 1.7 41 5.8 SSE 6 9 3 5 1018.9 1017.6 -
01/07:30am 16.1 12.9 1.0 36 6.7 SE 7 9 4 5 1018.6 1017.3 -
01/07:00am 16.4 13.5 2.4 39 6.4 SW 7 9 4 5 1018.5 1017.2 -
01/06:30am 16.3 14.2 1.6 37 6.6 SE 2 6 1 3 1018.2 1016.9 -
01/06:00am 16.2 13.2 1.9 38 6.4 S 7 7 4 4 1018.2 1016.9 -
01/05:30am 15.6 12.6 1.7 39 6.2 SW 7 9 4 5 1018.0 1016.7 -
01/05:00am 16.8 13.9 2.4 38 6.6 SSW 7 7 4 4 1017.9 1016.6 -
01/04:30am 16.4 13.5 1.7 37 6.6 S 6 7 3 4 1017.9 1016.6 -
01/04:00am 17.0 13.5 1.4 35 7.0 ESE 9 11 5 6 1018.1 1016.8 -
01/03:30am 17.0 13.1 1.4 35 7.0 ESE 11 13 6 7 1018.3 1017.0 -
01/03:00am 16.9 13.8 1.4 35 6.9 SE 7 9 4 5 1018.8 1017.5 0.0
01/02:30am 18.1 15.0 1.6 33 7.5 SSE 7 9 4 5 1019.1 1017.9 -
01/02:00am 18.7 15.3 2.1 33 7.7 SSE 9 11 5 6 1019.5 1018.3 -
01/01:30am 19.4 16.5 2.7 33 7.8 S 7 9 4 5 1019.7 1018.5 -
01/01:00am 19.7 17.0 2.6 32 8.0 ESE 6 7 3 4 1019.8 1018.6 -
01/12:30am 20.2 17.3 2.5 31 8.3 SSW 7 9 4 5 1020.1 1018.9 -
01/12:00am 20.5 17.2 2.3 30 8.5 SE 9 11 5 6 1020.2 1019.0 -
 
Date/Time
CDT
Temp
°C
App
Temp
°C
Dew
Point
Rel
Hum
%
Delta-T
°C
Wind Press
QNH
hPa
Press
MSL
hPa
Rain
since 9 am
mm
Dir
 
Spd
km/h
Gust
km/h
Spd
kts
Gust
kts
31/11:30pm 20.6 16.8 2.0 29 8.7 E 11 17 6 9 1020.2 1019.0 -
31/11:00pm 21.4 17.4 2.6 29 9.0 E 13 17 7 9 1020.1 1018.9 -
31/10:30pm 22.3 17.5 2.4 27 9.5 ESE 17 19 9 10 1020.3 1019.1 -
31/10:00pm 22.3 18.1 1.9 26 9.7 ESE 13 15 7 8 1020.2 1019.0 -
31/09:30pm 23.8 18.6 2.6 25 10.3 ESE 19 20 10 11 1020.0 1018.8 -
31/09:00pm 24.5 19.7 2.6 24 10.6 ESE 17 20 9 11 1019.8 1018.6 -
31/08:30pm 25.6 20.4 2.3 22 11.3 ESE 19 20 10 11 1019.8 1018.6 -
31/08:00pm 26.4 21.2 2.3 21 11.8 E 19 20 10 11 1019.7 1018.5 -
31/07:30pm 27.5 22.2 1.8 19 12.6 ESE 19 20 10 11 1019.5 1018.3 -
31/07:00pm 28.9 23.7 2.2 18 13.3 E 19 22 10 12 1019.3 1018.1 -
31/06:30pm 29.8 24.9 2.1 17 13.8 E 17 22 9 12 1019.2 1018.0 -
31/06:00pm 30.4 25.6 2.6 17 14.1 ENE 17 26 9 14 1019.0 1017.8 -
31/05:30pm 30.7 25.4 2.9 17 14.2 E 20 30 11 16 1018.8 1017.5 -
31/05:00pm 30.8 25.5 2.1 16 14.5 ESE 19 33 10 18 1018.6 1017.3 -
31/04:30pm 31.4 27.0 2.6 16 14.6 ESE 15 26 8 14 1019.0 1017.8 -
31/04:00pm 31.0 26.3 3.1 17 14.3 ENE 17 30 9 16 1019.2 1018.0 -
31/03:30pm 30.7 26.0 2.9 17 14.2 ESE 17 26 9 14 1019.2 1018.0 0.0
31/03:00pm 30.3 26.2 2.5 17 14.0 E 13 28 7 15 1019.8 1018.6 0.0
31/02:30pm 30.6 25.8 2.8 17 14.1 E 17 26 9 14 1020.2 1019.0 0.0
31/02:00pm 29.9 25.0 2.2 17 13.9 ENE 17 30 9 16 1020.7 1019.4 0.0
31/01:30pm 30.3 25.5 2.5 17 14.0 E 17 32 9 17 1021.4 1020.1 0.0
31/01:00pm 29.6 24.8 2.8 18 13.6 ESE 17 28 9 15 1022.0 1020.7 0.0
31/12:30pm 28.4 23.2 2.6 19 12.9 E 19 32 10 17 1022.7 1021.5 0.0
31/12:00pm 28.3 23.2 3.9 21 12.4 E 20 30 11 16 1023.0 1021.8 0.0
31/11:30am 27.4 21.5 3.8 22 11.9 E 24 37 13 20 1023.1 1021.9 0.0
31/11:00am 27.1 19.6 3.6 22 11.9 E 32 41 17 22 1023.5 1022.3 0.0
31/10:30am 26.5 19.3 3.1 22 11.6 ESE 30 39 16 21 1023.5 1022.3 0.0
31/10:00am 25.5 20.6 4.0 25 10.8 E 19 30 10 16 1023.6 1022.4 0.0
31/09:30am 23.6 19.6 5.0 30 9.4 ESE 15 20 8 11 1023.9 1022.7 0.0
31/09:00am 20.8 18.7 6.0 38 7.5 SSE 6 9 3 5 1024.1 1022.9 0.0
31/08:30am 18.6 16.5 5.8 43 6.3 E 6 7 3 4 1023.9 1022.7 0.0
31/08:00am 16.2 14.5 5.8 50 5.1 S 4 6 2 3 1023.7 1022.5 0.0
31/07:30am 15.6 13.3 5.8 52 4.7 SSW 7 9 4 5 1023.6 1022.4 0.0
31/07:00am 15.3 12.9 5.2 51 4.8 SSW 7 9 4 5 1023.3 1022.1 0.0
31/06:30am 15.9 13.2 5.8 51 4.9 SE 9 11 5 6 1022.9 1021.7 0.0
31/06:00am 16.4 13.8 6.0 50 5.1 SSE 9 11 5 6 1022.7 1021.5 0.0
31/05:30am 15.9 11.6 5.2 49 5.1 ESE 17 19 9 10 1022.4 1021.2 0.0
31/05:00am 16.7 13.2 5.3 47 5.5 ESE 13 15 7 8 1022.5 1021.3 0.0
31/04:30am 19.2 17.0 6.0 42 6.6 ESE 7 15 4 8 1022.6 1021.4 0.0
31/04:00am 18.0 15.4 5.9 45 6.0 SE 9 13 5 7 1022.8 1021.6 0.0
31/03:30am 16.1 14.6 5.1 48 5.3 E 2 9 1 5 1023.1 1021.9 0.0
31/03:00am 17.3 13.8 5.6 46 5.7 ESE 13 15 7 8 1023.0 1021.8 0.0
31/02:30am 17.3 13.0 5.3 45 5.8 ESE 17 19 9 10 1023.1 1021.9 0.0
31/02:00am 18.3 16.0 5.5 43 6.3 SE 7 9 4 5 1023.2 1022.0 0.0
31/01:30am 17.4 15.0 4.4 42 6.2 E 6 7 3 4 1023.3 1022.1 0.0
31/01:00am 19.1 16.7 5.2 40 6.9 SE 7 9 4 5 1023.2 1022.0 0.0
31/12:30am 19.0 17.9 5.1 40 6.8 CALM 0 6 0 3 1023.5 1022.3 0.0
31/12:00am 20.0 19.0 5.6 39 7.2 CALM 0 0 0 0 1023.6 1022.4 0.0
 
Date/Time
CDT
Temp
°C
App
Temp
°C
Dew
Point
Rel
Hum
%
Delta-T
°C
Wind Press
QNH
hPa
Press
MSL
hPa
Rain
since 9 am
mm
Dir
 
Spd
km/h
Gust
km/h
Spd
kts
Gust
kts
30/11:30pm 19.6 18.5 5.3 39 7.1 CALM 0 0 0 0 1023.7 1022.5 0.0
30/11:00pm 19.5 17.6 4.8 38 7.2 ESE 4 6 2 3 1023.7 1022.5 0.0
30/10:30pm 20.3 17.4 4.8 36 7.6 ESE 9 11 5 6 1023.6 1022.4 0.0
30/10:00pm 21.6 19.1 4.7 33 8.4 SE 7 11 4 6 1023.5 1022.3 0.0
30/09:30pm 23.2 20.1 5.6 32 8.9 ESE 11 13 6 7 1023.3 1022.1 0.0
30/09:00pm 24.2 21.5 5.5 30 9.6 SE 9 15 5 8 1023.1 1021.9 0.0
30/08:30pm 24.8 22.7 5.6 29 9.9 SE 6 11 3 6 1022.8 1021.6 0.0

Other Formats:

Comma delimited format used in spreadsheet applications
http://www.bom.gov.au/fwo/IDS60801/IDS60801.94674.axf

JavaScript Object Notation format (JSON) in row-major order
http://www.bom.gov.au/fwo/IDS60801/IDS60801.94674.json